Clearfield, South Dakota
Current Conditions -  °F | °C
As of 9:53 PM on Tuesday 25 Nov 2014 (Local Time) from KICR Reporting Station
Scattered Clouds Scattered Clouds  
Wind Chill: 28°   Ceiling: Unl
Heat Index: 37°   Visibility: 10mi
Dew Point: 31°   Wind: 16mph
Humidity: 79%   Direction: 290°WNW
Pressure: 29.83"   Gusts: NA
Location:  43.2923°N, 99.8934°W
Report Text: KICR 260353Z AUTO 29014KT 10SM SCT070 03/M01 A2983 RMK AO2 SLP120 T00281006
Loading
Personal Weather Stations






























Interactive Weather Map New forecast layout! Learn more

10-Day Weather Forecast

Advertisements
Track Severe Weather on mobile